createdAt,value
2023-10-30T00:02:20.879Z,20.01
2023-10-30T00:07:26.560Z,20.08
2023-10-30T00:12:30.884Z,20.24
2023-10-30T00:17:33.841Z,20.27
2023-10-30T00:22:36.795Z,20.27
2023-10-30T00:27:41.559Z,20.37
2023-10-30T00:32:44.510Z,20.29
2023-10-30T00:37:47.475Z,20.26
2023-10-30T00:42:51.645Z,20.25
2023-10-30T00:47:54.555Z,20.23
2023-10-30T00:52:57.454Z,20.18
2023-10-30T00:58:01.653Z,20.15
2023-10-30T01:03:04.656Z,20.15
2023-10-30T01:08:09.769Z,20.16
2023-10-30T01:13:14.170Z,20.15
2023-10-30T01:18:17.191Z,20.15
2023-10-30T01:23:20.056Z,20.17
2023-10-30T01:28:24.284Z,20.16
2023-10-30T01:33:27.293Z,20.16
2023-10-30T01:38:30.282Z,20.16
2023-10-30T01:43:35.717Z,20.16
2023-10-30T01:48:39.064Z,20.14
2023-10-30T01:53:41.986Z,20.15
2023-10-30T01:58:46.237Z,20.14
2023-10-30T02:03:50.220Z,20.14
2023-10-30T02:08:53.239Z,20.13
2023-10-30T02:13:58.007Z,20.15
2023-10-30T02:19:01.041Z,20.23
2023-10-30T02:24:07.417Z,20.33
2023-10-30T02:29:11.766Z,20.34
2023-10-30T02:34:15.153Z,20.44
2023-10-30T02:39:18.157Z,20.44
2023-10-30T02:44:22.371Z,20.48
2023-10-30T02:49:25.809Z,20.44
2023-10-30T02:54:29.398Z,20.49
2023-10-30T02:59:33.754Z,20.48
2023-10-30T03:04:36.793Z,20.44
2023-10-30T03:09:40.094Z,20.47
2023-10-30T03:14:45.096Z,20.47
2023-10-30T03:19:48.573Z,20.51
2023-10-30T03:24:51.562Z,20.48
2023-10-30T03:29:55.863Z,20.53
2023-10-30T03:34:58.689Z,20.55
2023-10-30T03:40:01.750Z,20.52
2023-10-30T03:45:08.563Z,20.57
2023-10-30T03:50:14.060Z,20.54
2023-10-30T03:55:17.027Z,20.53
2023-10-30T04:00:21.656Z,20.56
2023-10-30T04:05:24.565Z,20.53
2023-10-30T04:10:27.452Z,20.60
2023-10-30T04:15:34.362Z,20.57
2023-10-30T04:20:45.428Z,20.59
2023-10-30T04:25:49.811Z,20.63
2023-10-30T04:30:54.034Z,20.60
2023-10-30T04:35:56.897Z,20.59
2023-10-30T04:40:59.936Z,20.53
2023-10-30T04:46:04.528Z,20.61
2023-10-30T04:51:07.520Z,20.61
2023-10-30T04:56:11.191Z,20.63
2023-10-30T05:01:15.543Z,20.59
2023-10-30T05:06:19.066Z,20.58
2023-10-30T05:11:22.308Z,20.60
2023-10-30T05:16:26.540Z,20.60
2023-10-30T05:21:29.904Z,20.58
2023-10-30T05:26:32.785Z,20.63
2023-10-30T05:31:37.172Z,20.64
2023-10-30T05:36:40.462Z,20.60
2023-10-30T05:41:43.408Z,20.63
2023-10-30T05:46:47.614Z,20.64
2023-10-30T05:51:50.516Z,20.64
2023-10-30T05:56:53.370Z,20.64
2023-10-30T06:01:57.628Z,20.60
2023-10-30T06:07:00.475Z,20.63
2023-10-30T06:12:04.008Z,20.61
2023-10-30T06:17:08.280Z,20.62
2023-10-30T06:22:11.179Z,20.68
2023-10-30T06:27:14.140Z,20.65
2023-10-30T06:32:18.404Z,20.64
2023-10-30T06:37:21.325Z,20.60
2023-10-30T06:42:24.315Z,20.65
2023-10-30T06:47:30.254Z,20.65
2023-10-30T06:52:33.239Z,20.64
2023-10-30T06:57:36.174Z,20.66
2023-10-30T07:02:41.523Z,20.71
2023-10-30T07:07:44.572Z,20.71
2023-10-30T07:12:47.502Z,20.71
2023-10-30T07:17:51.845Z,20.69
2023-10-30T07:22:54.740Z,20.72
2023-10-30T07:27:58.423Z,20.72
2023-10-30T07:33:03.510Z,20.75
2023-10-30T07:38:07.119Z,20.70
2023-10-30T07:43:10.229Z,20.75
2023-10-30T07:48:14.446Z,20.75
2023-10-30T07:53:17.477Z,20.68
2023-10-30T07:58:20.334Z,20.80
2023-10-30T08:03:24.777Z,20.79
2023-10-30T08:08:29.902Z,20.81
2023-10-30T08:13:33.516Z,20.73
2023-10-30T08:18:37.870Z,20.82
2023-10-30T08:23:41.014Z,20.77
2023-10-30T08:28:45.933Z,20.82
2023-10-30T08:33:50.244Z,20.83
2023-10-30T08:38:55.483Z,20.83
2023-10-30T08:43:58.641Z,20.80
2023-10-30T08:49:02.945Z,20.81
2023-10-30T08:54:06.007Z,20.77
2023-10-30T08:59:09.176Z,20.79
2023-10-30T09:04:14.715Z,20.84
2023-10-30T09:09:17.733Z,20.78
2023-10-30T09:14:20.600Z,20.85
2023-10-30T09:19:24.859Z,20.83
2023-10-30T09:24:28.065Z,20.83
2023-10-30T09:29:30.963Z,20.89
2023-10-30T09:34:35.941Z,20.85
2023-10-30T09:39:38.899Z,20.91
2023-10-30T09:44:42.052Z,20.90
2023-10-30T09:49:46.741Z,20.87
2023-10-30T09:54:51.533Z,20.84
2023-10-30T09:59:56.174Z,20.85
2023-10-30T10:05:01.147Z,20.86
2023-10-30T10:10:06.976Z,20.89
2023-10-30T10:15:10.457Z,20.85
2023-10-30T10:20:14.956Z,20.85
2023-10-30T10:25:19.658Z,20.83
2023-10-30T10:30:24.469Z,20.90
2023-10-30T10:35:28.800Z,20.84
2023-10-30T10:40:31.711Z,20.85
2023-10-30T10:45:34.639Z,20.83
2023-10-30T10:50:38.891Z,20.89
2023-10-30T10:55:44.466Z,20.88
2023-10-30T11:00:49.115Z,20.97
2023-10-30T11:05:54.392Z,20.85
2023-10-30T11:10:59.082Z,20.89
2023-10-30T11:16:09.697Z,20.85
2023-10-30T11:21:16.335Z,20.85
2023-10-30T11:26:49.090Z,20.80
2023-10-30T11:32:04.177Z,20.89
2023-10-30T11:37:12.246Z,20.88
2023-10-30T11:42:29.182Z,20.91
2023-10-30T11:47:32.117Z,20.97
2023-10-30T11:52:36.885Z,20.89
2023-10-30T11:57:40.176Z,20.89
2023-10-30T12:02:43.736Z,20.93
2023-10-30T12:07:48.149Z,20.92
2023-10-30T12:12:51.105Z,20.92
2023-10-30T12:17:54.108Z,20.92
2023-10-30T12:22:58.619Z,20.97
2023-10-30T12:28:02.465Z,20.95
2023-10-30T12:33:05.891Z,20.94
2023-10-30T12:38:16.474Z,20.90
2023-10-30T12:43:20.841Z,20.89
2023-10-30T12:48:23.734Z,20.89
2023-10-30T12:53:27.936Z,20.87
2023-10-30T12:58:30.798Z,20.90
2023-10-30T13:03:34.787Z,20.89
2023-10-30T13:08:39.177Z,20.89
2023-10-30T13:13:42.085Z,20.88
2023-10-30T13:18:44.936Z,20.87
2023-10-30T13:23:49.594Z,20.87
2023-10-30T13:28:52.421Z,20.84
2023-10-30T13:33:55.377Z,20.83
2023-10-30T13:38:59.640Z,20.84
2023-10-30T13:44:02.825Z,20.86
2023-10-30T13:49:07.309Z,20.88
2023-10-30T13:54:11.569Z,20.91
2023-10-30T13:59:14.427Z,20.91
2023-10-30T14:04:18.416Z,20.90
2023-10-30T14:09:22.761Z,20.87
2023-10-30T14:14:25.623Z,20.88
2023-10-30T14:19:28.499Z,20.88
2023-10-30T14:24:32.849Z,20.90
2023-10-30T14:29:35.797Z,20.92
2023-10-30T14:34:39.650Z,20.93
2023-10-30T14:39:44.295Z,20.93
2023-10-30T14:44:47.505Z,20.92
2023-10-30T14:49:50.610Z,20.93
2023-10-30T14:54:54.949Z,20.93
2023-10-30T14:59:57.839Z,20.90
2023-10-30T15:05:01.274Z,20.90
2023-10-30T15:10:06.585Z,20.93
2023-10-30T15:15:10.143Z,20.95
2023-10-30T15:20:13.423Z,20.96
2023-10-30T15:25:18.930Z,20.98
2023-10-30T15:30:22.055Z,20.95
2023-10-30T15:35:24.930Z,20.95
2023-10-30T15:40:29.160Z,20.95
2023-10-30T15:45:32.083Z,20.94
2023-10-30T15:50:38.069Z,20.96
2023-10-30T16:00:50.079Z,20.98
2023-10-30T16:11:11.728Z,20.97
2023-10-30T16:16:23.943Z,20.99
2023-10-30T16:21:27.458Z,20.98
2023-10-30T16:26:31.928Z,20.97
2023-10-30T16:31:34.868Z,20.98
2023-10-30T16:36:37.781Z,21.00
2023-10-30T16:41:43.667Z,21.01
2023-10-30T16:46:46.702Z,21.01
2023-10-30T16:51:49.699Z,21.03
2023-10-30T16:56:53.983Z,21.04
2023-10-30T17:01:56.986Z,21.03
2023-10-30T17:07:00.046Z,21.03
2023-10-30T17:12:04.724Z,21.02
2023-10-30T17:17:07.705Z,21.01
2023-10-30T17:22:10.578Z,21.04
2023-10-30T17:27:15.231Z,21.02
2023-10-30T17:32:18.192Z,21.04
2023-10-30T17:37:21.299Z,21.03
2023-10-30T17:42:25.623Z,21.05
2023-10-30T17:47:28.575Z,21.03
2023-10-30T17:52:31.480Z,21.05
2023-10-30T17:57:36.016Z,21.07
2023-10-30T18:02:38.949Z,21.03
2023-10-30T18:07:41.833Z,21.06
2023-10-30T18:12:46.130Z,21.06
2023-10-30T18:17:51.241Z,21.05
2023-10-30T18:22:54.136Z,21.01
2023-10-30T18:27:58.318Z,21.02
2023-10-30T18:33:01.383Z,20.97
2023-10-30T18:38:05.338Z,20.95
2023-10-30T18:43:09.674Z,20.93
2023-10-30T18:48:13.176Z,20.89
2023-10-30T18:53:16.105Z,20.88
2023-10-30T18:58:20.308Z,20.88
2023-10-30T19:03:23.845Z,20.85
2023-10-30T19:08:28.778Z,20.85
2023-10-30T19:13:33.219Z,20.81
2023-10-30T19:18:36.219Z,20.82
2023-10-30T19:23:39.063Z,20.78
2023-10-30T19:28:46.294Z,20.80
2023-10-30T19:33:50.314Z,20.78
2023-10-30T19:38:53.164Z,20.78
2023-10-30T19:43:58.959Z,20.77
2023-10-30T19:49:01.856Z,20.76
2023-10-30T19:54:04.939Z,20.74
2023-10-30T19:59:09.140Z,20.73
2023-10-30T20:04:12.014Z,20.73
2023-10-30T20:09:15.931Z,20.70
2023-10-30T20:14:20.305Z,20.71
2023-10-30T20:19:23.214Z,20.70
2023-10-30T20:24:26.041Z,20.71
2023-10-30T20:29:33.061Z,20.70
2023-10-30T20:34:36.099Z,20.67
2023-10-30T20:39:39.007Z,20.66
2023-10-30T20:44:43.267Z,20.67
2023-10-30T20:49:46.143Z,20.62
2023-10-30T20:54:49.209Z,20.60
2023-10-30T20:59:53.459Z,20.64
2023-10-30T21:04:57.396Z,20.60
2023-10-30T21:10:03.499Z,20.57
2023-10-30T21:15:09.671Z,20.57
2023-10-30T21:20:12.965Z,20.56
2023-10-30T21:25:15.928Z,20.47
2023-10-30T21:30:21.572Z,20.49
2023-10-30T21:35:24.609Z,20.47
2023-10-30T21:40:27.513Z,20.45
2023-10-30T21:45:31.732Z,20.48
2023-10-30T21:50:34.602Z,20.50
2023-10-30T21:55:37.484Z,20.49
2023-10-30T22:00:45.113Z,20.46
2023-10-30T22:05:47.970Z,20.46
2023-10-30T22:10:50.897Z,20.46
2023-10-30T22:15:55.105Z,20.48
2023-10-30T22:20:58.092Z,20.45
2023-10-30T22:26:01.156Z,20.44
2023-10-30T22:31:05.636Z,20.43
2023-10-30T22:36:09.208Z,20.44
2023-10-30T22:41:12.341Z,20.42
2023-10-30T22:46:16.611Z,20.43
2023-10-30T22:51:19.578Z,20.36
2023-10-30T22:56:23.495Z,20.36
2023-10-30T23:01:27.864Z,20.34
2023-10-30T23:06:32.683Z,20.32
2023-10-30T23:11:36.503Z,20.30
2023-10-30T23:16:40.807Z,20.30
2023-10-30T23:21:43.967Z,20.28
2023-10-30T23:26:46.814Z,20.31
2023-10-30T23:31:52.329Z,20.31
2023-10-30T23:36:55.225Z,20.31
2023-10-30T23:41:58.119Z,20.31
2023-10-30T23:47:02.424Z,20.31
2023-10-30T23:52:05.648Z,20.30
2023-10-30T23:57:08.504Z,20.29
